createdAt,value
2022-07-31T00:00:37.441Z,54.27
2022-07-31T00:03:07.014Z,53.97
2022-07-31T00:05:39.276Z,54.00
2022-07-31T00:08:09.935Z,54.30
2022-07-31T00:10:37.950Z,54.20
2022-07-31T00:13:05.871Z,53.53
2022-07-31T00:15:33.686Z,53.43
2022-07-31T00:18:01.486Z,52.67
2022-07-31T00:20:30.708Z,53.50
2022-07-31T00:22:58.603Z,52.77
2022-07-31T00:25:26.735Z,54.23
2022-07-31T00:27:54.520Z,53.60
2022-07-31T00:30:22.526Z,53.37
2022-07-31T00:32:51.780Z,53.47
2022-07-31T00:35:20.355Z,53.90
2022-07-31T00:37:52.250Z,53.50
2022-07-31T00:40:23.254Z,54.07
2022-07-31T00:42:51.371Z,53.60
2022-07-31T00:45:19.319Z,53.60
2022-07-31T00:47:55.720Z,53.43
2022-07-31T00:50:23.868Z,54.10
2022-07-31T00:52:53.063Z,53.47
2022-07-31T00:55:22.581Z,53.87
2022-07-31T00:57:50.548Z,53.20
2022-07-31T01:00:18.643Z,53.57
2022-07-31T01:02:46.872Z,52.00
2022-07-31T01:05:15.269Z,53.83
2022-07-31T01:07:43.286Z,53.60
2022-07-31T01:10:17.718Z,53.30
2022-07-31T01:12:54.355Z,52.77
2022-07-31T01:15:25.231Z,53.03
2022-07-31T01:17:55.732Z,53.47
2022-07-31T01:20:24.118Z,53.17
2022-07-31T01:23:05.718Z,53.40
2022-07-31T01:25:59.500Z,53.07
2022-07-31T01:29:01.372Z,53.10
2022-07-31T01:31:40.239Z,52.80
2022-07-31T01:34:12.044Z,52.73
2022-07-31T01:36:49.655Z,53.33
2022-07-31T01:39:18.632Z,53.00
2022-07-31T01:41:49.231Z,53.23
2022-07-31T01:44:19.685Z,53.43
2022-07-31T01:46:49.128Z,53.00
2022-07-31T01:49:19.871Z,52.37
2022-07-31T01:51:49.473Z,52.97
2022-07-31T01:54:19.745Z,52.47
2022-07-31T01:56:49.777Z,52.80
2022-07-31T01:59:22.725Z,52.97
2022-07-31T02:02:09.928Z,53.03
2022-07-31T02:04:39.095Z,51.93
2022-07-31T02:07:09.014Z,51.83
2022-07-31T02:09:58.310Z,52.60
2022-07-31T02:12:33.832Z,52.20
2022-07-31T02:15:08.326Z,52.03
2022-07-31T02:17:39.363Z,52.57
2022-07-31T02:20:31.086Z,52.77
2022-07-31T02:23:01.393Z,52.30
2022-07-31T02:25:30.613Z,52.50
2022-07-31T02:28:03.947Z,52.17
2022-07-31T02:30:38.779Z,52.47
2022-07-31T02:33:10.971Z,52.67
2022-07-31T02:35:44.043Z,52.90
2022-07-31T02:38:22.426Z,52.80
2022-07-31T02:40:54.162Z,52.03
2022-07-31T02:43:22.194Z,52.47
2022-07-31T02:45:52.140Z,52.40
2022-07-31T02:48:20.198Z,51.80
2022-07-31T02:50:50.824Z,52.10
2022-07-31T02:53:18.991Z,51.77
2022-07-31T02:55:48.027Z,52.13
2022-07-31T02:58:15.907Z,52.23
2022-07-31T03:00:46.268Z,52.30
2022-07-31T03:03:16.237Z,52.13
2022-07-31T03:05:44.176Z,51.97
2022-07-31T03:08:12.027Z,51.93
2022-07-31T03:10:43.193Z,51.20
2022-07-31T03:13:12.891Z,52.37
2022-07-31T03:15:50.928Z,51.77
2022-07-31T03:18:21.660Z,51.70
2022-07-31T03:20:52.461Z,51.97
2022-07-31T03:23:22.605Z,51.87
2022-07-31T03:25:59.051Z,51.17
2022-07-31T03:28:27.032Z,51.47
2022-07-31T03:30:56.341Z,51.53
2022-07-31T03:33:27.919Z,52.20
2022-07-31T03:35:57.921Z,51.57
2022-07-31T03:38:39.315Z,51.73
2022-07-31T03:41:14.376Z,51.60
2022-07-31T03:43:48.012Z,51.27
2022-07-31T03:46:20.998Z,51.13
2022-07-31T03:48:52.091Z,51.50
2022-07-31T03:51:20.811Z,51.27
2022-07-31T03:53:49.676Z,51.67
2022-07-31T03:56:38.896Z,51.40
2022-07-31T03:59:07.500Z,51.60
2022-07-31T04:01:56.723Z,51.17
2022-07-31T04:04:47.888Z,51.33
2022-07-31T04:07:15.925Z,51.47
2022-07-31T04:09:44.050Z,51.73
2022-07-31T04:12:13.494Z,51.37
2022-07-31T04:14:41.422Z,51.50
2022-07-31T04:17:09.938Z,51.80
2022-07-31T04:19:38.021Z,51.87
2022-07-31T04:22:08.636Z,51.63
2022-07-31T04:24:37.357Z,51.47
2022-07-31T04:27:28.463Z,51.33
2022-07-31T04:29:57.444Z,51.87
2022-07-31T04:32:25.418Z,51.73
2022-07-31T04:35:03.838Z,52.07
2022-07-31T04:37:33.743Z,51.83
2022-07-31T04:40:01.619Z,51.40
2022-07-31T04:42:32.633Z,51.87
2022-07-31T04:45:01.168Z,51.80
2022-07-31T04:47:29.079Z,52.17
2022-07-31T04:49:58.032Z,51.97
2022-07-31T04:52:27.699Z,51.93
2022-07-31T04:54:59.182Z,52.10
2022-07-31T04:57:28.543Z,52.27
2022-07-31T04:59:59.461Z,52.23
2022-07-31T05:02:28.667Z,51.53
2022-07-31T05:04:57.534Z,51.70
2022-07-31T05:07:31.488Z,51.77
2022-07-31T05:10:03.334Z,51.60
2022-07-31T05:12:32.517Z,52.00
2022-07-31T05:15:00.597Z,51.63
2022-07-31T05:17:28.700Z,52.17
2022-07-31T05:20:19.770Z,51.57
2022-07-31T05:23:10.234Z,52.10
2022-07-31T05:26:02.542Z,51.73
2022-07-31T05:28:30.418Z,51.50
2022-07-31T05:31:00.049Z,51.97
2022-07-31T05:33:29.462Z,51.87
2022-07-31T05:35:57.884Z,52.47
2022-07-31T05:38:26.183Z,51.70
2022-07-31T05:41:18.412Z,51.87
2022-07-31T05:44:05.176Z,52.37
2022-07-31T05:46:38.008Z,51.73
2022-07-31T05:49:06.022Z,52.60
2022-07-31T05:51:33.954Z,52.43
2022-07-31T05:54:01.904Z,52.40
2022-07-31T05:57:00.103Z,52.27
2022-07-31T05:59:35.349Z,52.10
2022-07-31T06:02:04.728Z,52.17
2022-07-31T06:04:43.531Z,51.90
2022-07-31T06:07:11.405Z,52.37
2022-07-31T06:09:40.031Z,52.43
2022-07-31T06:12:10.032Z,52.80
2022-07-31T06:14:37.854Z,52.33
2022-07-31T06:17:24.304Z,52.60
2022-07-31T06:20:15.728Z,52.63
2022-07-31T06:22:44.983Z,53.40
2022-07-31T06:25:13.703Z,53.07
2022-07-31T06:27:44.192Z,53.03
2022-07-31T06:30:18.835Z,53.27
2022-07-31T06:32:46.673Z,53.40
2022-07-31T06:35:14.557Z,52.90
2022-07-31T06:38:02.417Z,53.53
2022-07-31T06:40:36.729Z,53.33
2022-07-31T06:43:31.306Z,53.53
2022-07-31T06:46:37.428Z,53.20
2022-07-31T06:49:43.926Z,53.57
2022-07-31T06:52:12.003Z,54.20
2022-07-31T06:54:39.843Z,54.07
2022-07-31T06:57:07.715Z,53.97
2022-07-31T06:59:40.029Z,54.10
2022-07-31T07:02:09.518Z,53.13
2022-07-31T07:05:05.140Z,54.37
2022-07-31T07:07:31.492Z,53.87
2022-07-31T07:10:00.461Z,54.30
2022-07-31T07:12:51.550Z,54.37
2022-07-31T07:15:23.254Z,54.50
2022-07-31T07:17:51.670Z,53.93
2022-07-31T07:20:27.526Z,53.77
2022-07-31T07:22:55.359Z,54.50
2022-07-31T07:25:36.403Z,54.70
2022-07-31T07:28:04.745Z,53.83
2022-07-31T07:30:34.384Z,54.40
2022-07-31T07:33:05.362Z,54.80
2022-07-31T07:35:34.187Z,54.93
2022-07-31T07:38:07.468Z,54.90
2022-07-31T07:40:37.706Z,55.27
2022-07-31T07:43:05.696Z,54.50
2022-07-31T07:45:35.093Z,54.33
2022-07-31T07:48:06.692Z,55.00
2022-07-31T07:50:58.212Z,54.70
2022-07-31T07:53:32.050Z,54.40
2022-07-31T07:56:14.968Z,54.20
2022-07-31T07:59:05.389Z,54.60
2022-07-31T08:02:03.101Z,55.10
2022-07-31T08:04:34.568Z,55.50
2022-07-31T08:07:04.011Z,55.50
2022-07-31T08:09:37.125Z,55.27
2022-07-31T08:12:23.823Z,55.53
2022-07-31T08:15:20.961Z,55.17
2022-07-31T08:18:08.676Z,55.13
2022-07-31T08:20:38.131Z,55.13
2022-07-31T08:23:06.638Z,54.60
2022-07-31T08:25:34.636Z,55.17
2022-07-31T08:28:04.124Z,55.00
2022-07-31T08:30:33.887Z,55.40
2022-07-31T08:33:01.789Z,55.27
2022-07-31T08:35:39.847Z,54.57
2022-07-31T08:38:13.216Z,54.83
2022-07-31T08:40:48.519Z,55.47
2022-07-31T08:44:03.180Z,55.07
2022-07-31T08:46:07.881Z,54.97
2022-07-31T08:48:41.888Z,54.77
2022-07-31T08:51:13.672Z,55.57
2022-07-31T08:54:01.433Z,55.80
2022-07-31T08:56:30.094Z,56.03
2022-07-31T08:58:57.997Z,55.97
2022-07-31T09:01:26.102Z,56.37
2022-07-31T09:03:55.040Z,55.83
2022-07-31T09:06:25.080Z,56.20
2022-07-31T09:08:53.733Z,56.20
2022-07-31T09:11:22.231Z,56.40
2022-07-31T09:14:03.487Z,56.00
2022-07-31T09:16:54.512Z,56.27
2022-07-31T09:19:54.023Z,56.50
2022-07-31T09:22:26.889Z,56.73
2022-07-31T09:25:08.569Z,56.63
2022-07-31T09:27:36.443Z,56.83
2022-07-31T09:30:05.456Z,57.00
2022-07-31T09:33:14.620Z,56.47
2022-07-31T09:36:03.415Z,55.50
2022-07-31T09:38:37.288Z,56.90
2022-07-31T09:41:56.499Z,56.47
2022-07-31T09:44:16.491Z,57.70
2022-07-31T09:46:46.832Z,58.80
2022-07-31T09:49:15.314Z,58.70
2022-07-31T09:51:48.228Z,58.50
2022-07-31T09:54:27.362Z,58.00
2022-07-31T09:57:12.246Z,57.90
2022-07-31T09:59:50.826Z,58.00
2022-07-31T10:02:21.012Z,58.77
2022-07-31T10:04:53.293Z,58.30
2022-07-31T10:07:32.836Z,59.57
2022-07-31T10:10:15.261Z,58.00
2022-07-31T10:13:12.879Z,57.43
2022-07-31T10:15:41.525Z,56.27
2022-07-31T10:18:51.323Z,56.73
2022-07-31T10:21:41.608Z,56.77
2022-07-31T10:24:13.222Z,56.90
2022-07-31T10:29:32.783Z,56.10
2022-07-31T10:32:02.213Z,56.90
2022-07-31T10:34:31.394Z,58.47
2022-07-31T10:37:34.404Z,58.90
2022-07-31T10:40:27.422Z,60.67
2022-07-31T10:43:20.483Z,57.57
2022-07-31T10:46:08.998Z,58.73
2022-07-31T10:48:53.101Z,58.93
2022-07-31T10:51:47.751Z,58.60
2022-07-31T10:54:40.442Z,60.37
2022-07-31T10:57:30.314Z,58.80
2022-07-31T11:00:30.694Z,61.00
2022-07-31T11:03:17.643Z,60.97
2022-07-31T11:06:04.184Z,64.63
2022-07-31T11:08:57.995Z,59.80
2022-07-31T11:11:44.356Z,62.67
2022-07-31T11:14:34.853Z,59.33
2022-07-31T11:18:20.215Z,57.40
2022-07-31T11:20:40.943Z,59.43
2022-07-31T11:23:10.069Z,61.93
2022-07-31T11:25:38.976Z,60.80
2022-07-31T11:28:14.843Z,61.97
2022-07-31T11:30:53.572Z,64.10
2022-07-31T11:33:42.762Z,64.23
2022-07-31T11:36:12.676Z,65.30
2022-07-31T11:38:42.268Z,67.37
2022-07-31T11:41:12.592Z,61.87
2022-07-31T11:43:45.839Z,64.87
2022-07-31T11:46:16.416Z,61.40
2022-07-31T11:48:45.864Z,60.73
2022-07-31T11:51:19.398Z,58.20
2022-07-31T11:53:48.410Z,58.90
2022-07-31T11:56:26.424Z,60.17
2022-07-31T11:58:55.626Z,58.33
2022-07-31T12:01:27.097Z,58.33
2022-07-31T12:03:57.571Z,57.80
2022-07-31T12:06:36.649Z,58.30
2022-07-31T12:09:05.427Z,59.60
2022-07-31T12:11:33.431Z,63.73
2022-07-31T12:14:01.269Z,59.17
2022-07-31T12:16:39.973Z,58.03
2022-07-31T12:19:09.231Z,58.07
2022-07-31T12:21:40.037Z,57.77
2022-07-31T12:24:12.941Z,58.23
2022-07-31T12:26:44.781Z,58.23
2022-07-31T12:29:13.552Z,57.73
2022-07-31T12:31:46.150Z,57.63
2022-07-31T12:34:25.986Z,57.43
2022-07-31T12:37:01.853Z,58.30
2022-07-31T12:39:54.128Z,57.93
2022-07-31T12:42:27.755Z,57.87
2022-07-31T12:45:19.118Z,58.13
2022-07-31T12:47:51.977Z,57.00
2022-07-31T12:50:22.028Z,57.77
2022-07-31T12:52:49.953Z,59.37
2022-07-31T12:55:17.965Z,58.30
2022-07-31T12:57:51.577Z,58.20
2022-07-31T13:00:22.421Z,57.10
2022-07-31T13:02:50.537Z,57.73
2022-07-31T13:05:18.681Z,56.97
2022-07-31T13:07:48.568Z,57.50
2022-07-31T13:10:21.352Z,57.43
2022-07-31T13:12:51.155Z,57.47
2022-07-31T13:15:21.050Z,56.97
2022-07-31T13:17:51.171Z,57.53
2022-07-31T13:20:19.381Z,57.67
2022-07-31T13:22:48.540Z,58.37
2022-07-31T13:25:16.470Z,58.00
2022-07-31T13:27:44.669Z,57.77
2022-07-31T13:30:13.945Z,56.33
2022-07-31T13:32:41.810Z,58.37
2022-07-31T13:35:19.516Z,57.97
2022-07-31T13:37:56.993Z,58.27
2022-07-31T13:40:39.104Z,57.77
2022-07-31T13:43:06.972Z,57.17
2022-07-31T13:45:34.822Z,57.67
2022-07-31T13:48:05.623Z,57.67
2022-07-31T13:50:37.175Z,57.90
2022-07-31T13:53:06.460Z,58.10
2022-07-31T13:55:34.366Z,60.10
2022-07-31T13:58:02.304Z,58.20
2022-07-31T14:00:30.801Z,57.83
2022-07-31T14:02:58.895Z,57.77
2022-07-31T14:05:27.629Z,57.00
2022-07-31T14:07:56.139Z,57.50
2022-07-31T14:10:25.383Z,58.23
2022-07-31T14:12:53.450Z,58.13
2022-07-31T14:15:21.474Z,58.13
2022-07-31T14:17:49.275Z,58.20
2022-07-31T14:20:17.321Z,58.57
2022-07-31T14:22:45.159Z,58.53
2022-07-31T14:25:13.664Z,58.60
2022-07-31T14:27:44.176Z,58.23
2022-07-31T14:30:13.094Z,58.57
2022-07-31T14:32:47.989Z,58.23
2022-07-31T14:35:15.893Z,58.57
2022-07-31T14:37:43.690Z,58.60
2022-07-31T14:40:13.006Z,58.10
2022-07-31T14:42:42.597Z,60.60
2022-07-31T14:45:11.385Z,58.90
2022-07-31T14:47:39.311Z,58.07
2022-07-31T14:50:12.088Z,58.77
2022-07-31T14:52:41.682Z,57.67
2022-07-31T14:55:10.583Z,58.77
2022-07-31T14:57:38.380Z,59.17
2022-07-31T15:00:12.756Z,58.03
2022-07-31T15:02:40.890Z,58.50
2022-07-31T15:06:39.472Z,58.50
2022-07-31T15:07:57.967Z,58.57
2022-07-31T15:10:25.843Z,57.70
2022-07-31T15:12:53.698Z,58.50
2022-07-31T15:15:22.874Z,58.00
2022-07-31T15:17:50.657Z,58.20
2022-07-31T15:20:18.576Z,58.53
2022-07-31T15:22:46.421Z,58.57
2022-07-31T15:25:14.900Z,58.90
2022-07-31T15:27:42.723Z,58.97
2022-07-31T15:30:11.655Z,58.70
2022-07-31T15:32:40.930Z,57.70
2022-07-31T15:35:12.030Z,58.60
2022-07-31T15:37:40.984Z,58.73
2022-07-31T15:40:11.411Z,62.47
2022-07-31T15:42:41.682Z,64.70
2022-07-31T15:45:11.800Z,59.40
2022-07-31T15:47:41.473Z,58.70
2022-07-31T15:50:11.566Z,66.70
2022-07-31T15:52:39.625Z,59.87
2022-07-31T15:55:08.712Z,59.30
2022-07-31T15:57:36.547Z,58.70
2022-07-31T16:00:07.788Z,59.00
2022-07-31T16:02:41.628Z,58.97
2022-07-31T16:05:21.680Z,59.30
2022-07-31T16:08:31.472Z,58.83
2022-07-31T16:10:49.083Z,59.00
2022-07-31T16:13:20.421Z,57.97
2022-07-31T16:15:48.232Z,58.00
2022-07-31T16:18:18.473Z,58.37
2022-07-31T16:20:46.833Z,58.70
2022-07-31T16:23:14.674Z,58.20
2022-07-31T16:25:42.500Z,58.87
2022-07-31T16:28:10.288Z,58.50
2022-07-31T16:30:38.149Z,59.23
2022-07-31T16:33:06.028Z,58.13
2022-07-31T16:35:35.193Z,57.97
2022-07-31T16:38:03.002Z,58.03
2022-07-31T16:40:32.128Z,58.40
2022-07-31T16:43:02.310Z,57.33
2022-07-31T16:45:50.210Z,58.37
2022-07-31T16:48:18.044Z,57.67
2022-07-31T16:50:53.330Z,56.27
2022-07-31T16:54:11.219Z,57.03
2022-07-31T16:56:10.998Z,56.87
2022-07-31T16:58:38.788Z,57.33
2022-07-31T17:01:58.451Z,55.40
2022-07-31T17:03:59.973Z,56.07
2022-07-31T17:06:37.059Z,55.47
2022-07-31T17:09:16.265Z,56.17
2022-07-31T17:11:48.053Z,55.13
2022-07-31T17:14:16.300Z,55.60
2022-07-31T17:16:47.437Z,54.90
2022-07-31T17:19:16.248Z,54.63
2022-07-31T17:22:05.792Z,55.30
2022-07-31T17:24:36.888Z,55.60
2022-07-31T17:27:05.406Z,55.53
2022-07-31T17:29:33.550Z,54.77
2022-07-31T17:32:01.416Z,54.17
2022-07-31T17:34:29.275Z,55.83
2022-07-31T17:36:57.080Z,54.80
2022-07-31T17:39:30.779Z,55.47
2022-07-31T17:41:59.438Z,55.33
2022-07-31T17:44:27.587Z,55.67
2022-07-31T17:46:57.777Z,55.13
2022-07-31T17:49:27.223Z,55.33
2022-07-31T17:51:58.759Z,54.93
2022-07-31T17:54:30.836Z,54.87
2022-07-31T17:56:58.953Z,55.43
2022-07-31T17:59:26.978Z,55.30
2022-07-31T18:01:59.674Z,55.93
2022-07-31T18:04:27.784Z,54.70
2022-07-31T18:06:55.588Z,55.10
2022-07-31T18:09:23.922Z,54.80
2022-07-31T18:11:54.302Z,55.20
2022-07-31T18:14:24.644Z,55.00
2022-07-31T18:16:53.246Z,55.17
2022-07-31T18:19:22.266Z,55.00
2022-07-31T18:21:50.724Z,54.77
2022-07-31T18:24:18.612Z,54.57
2022-07-31T18:26:46.664Z,55.00
2022-07-31T18:29:16.889Z,54.63
2022-07-31T18:31:45.401Z,54.70
2022-07-31T18:34:13.352Z,54.90
2022-07-31T18:36:41.788Z,54.33
2022-07-31T18:39:09.656Z,54.73
2022-07-31T18:41:38.232Z,55.13
2022-07-31T18:44:06.570Z,54.37
2022-07-31T18:46:35.884Z,54.20
2022-07-31T18:49:05.131Z,55.10
2022-07-31T18:51:33.142Z,55.27
2022-07-31T18:54:02.383Z,53.97
2022-07-31T18:56:30.540Z,54.63
2022-07-31T18:58:58.459Z,55.17
2022-07-31T19:01:26.333Z,54.10
2022-07-31T19:03:56.035Z,55.37
2022-07-31T19:06:24.172Z,60.00
2022-07-31T19:08:52.292Z,58.63
2022-07-31T19:11:20.286Z,55.90
2022-07-31T19:13:48.223Z,55.30
2022-07-31T19:16:17.677Z,55.13
2022-07-31T19:18:45.954Z,55.10
2022-07-31T19:21:23.942Z,55.20
2022-07-31T19:24:08.712Z,55.07
2022-07-31T19:26:37.991Z,54.90
2022-07-31T19:29:06.354Z,54.90
2022-07-31T19:31:34.292Z,55.17
2022-07-31T19:34:02.106Z,55.10
2022-07-31T19:36:31.288Z,54.87
2022-07-31T19:38:59.382Z,55.03
2022-07-31T19:41:27.300Z,54.63
2022-07-31T19:43:55.090Z,55.33
2022-07-31T19:46:22.886Z,55.10
2022-07-31T19:48:50.798Z,55.10
2022-07-31T19:51:18.682Z,55.20
2022-07-31T19:53:48.056Z,54.93
2022-07-31T19:56:20.474Z,54.57
2022-07-31T19:58:49.596Z,54.30
2022-07-31T20:01:19.866Z,54.47
2022-07-31T20:03:47.807Z,54.70
2022-07-31T20:06:16.176Z,54.63
2022-07-31T20:08:44.116Z,54.17
2022-07-31T20:11:13.369Z,54.73
2022-07-31T20:13:41.336Z,54.70
2022-07-31T20:16:09.174Z,54.63
2022-07-31T20:18:37.074Z,54.47
2022-07-31T20:21:07.793Z,55.13
2022-07-31T20:23:38.103Z,54.47
2022-07-31T20:26:07.027Z,54.70
2022-07-31T20:28:36.451Z,54.60
2022-07-31T20:31:04.683Z,55.00
2022-07-31T20:33:32.687Z,54.43
2022-07-31T20:36:00.502Z,54.70
2022-07-31T20:38:28.491Z,54.80
2022-07-31T20:40:56.390Z,55.07
2022-07-31T20:43:25.214Z,56.87
2022-07-31T20:45:56.959Z,56.13
2022-07-31T20:48:26.988Z,56.13
2022-07-31T20:50:54.884Z,56.47
2022-07-31T20:53:23.059Z,56.40
2022-07-31T20:55:50.979Z,57.17
2022-07-31T20:58:19.250Z,56.90
2022-07-31T21:00:48.078Z,54.73
2022-07-31T21:03:17.814Z,54.93
2022-07-31T21:05:46.413Z,55.30
2022-07-31T21:08:14.585Z,54.17
2022-07-31T21:10:42.593Z,55.17
2022-07-31T21:13:10.684Z,54.63
2022-07-31T21:15:42.688Z,54.47
2022-07-31T21:18:13.611Z,54.50
2022-07-31T21:20:50.285Z,54.63
2022-07-31T21:23:22.402Z,54.93
2022-07-31T21:25:50.609Z,54.77
2022-07-31T21:28:19.029Z,55.17
2022-07-31T21:30:47.218Z,55.13
2022-07-31T21:33:15.138Z,54.83
2022-07-31T21:35:45.213Z,53.87
2022-07-31T21:38:15.015Z,54.53
2022-07-31T21:40:43.490Z,54.60
2022-07-31T21:43:16.605Z,54.87
2022-07-31T21:45:54.857Z,54.37
2022-07-31T21:48:25.262Z,55.00
2022-07-31T21:50:55.534Z,54.83
2022-07-31T21:53:24.409Z,55.03
2022-07-31T21:55:52.459Z,55.37
2022-07-31T21:58:20.392Z,54.17
2022-07-31T22:00:48.571Z,54.97
2022-07-31T22:03:16.582Z,55.10
2022-07-31T22:06:01.901Z,54.80
2022-07-31T22:08:31.047Z,54.77
2022-07-31T22:10:58.899Z,54.60
2022-07-31T22:13:26.811Z,54.60
2022-07-31T22:15:59.812Z,54.37
2022-07-31T22:18:33.299Z,54.90
2022-07-31T22:21:03.193Z,53.63
2022-07-31T22:23:33.036Z,55.00
2022-07-31T22:26:01.527Z,54.80
2022-07-31T22:28:29.874Z,54.90
2022-07-31T22:30:58.401Z,54.20
2022-07-31T22:33:26.561Z,54.07
2022-07-31T22:35:59.010Z,54.10
2022-07-31T22:38:29.224Z,54.60
2022-07-31T22:40:59.125Z,54.67
2022-07-31T22:44:11.215Z,54.60
2022-07-31T22:46:15.907Z,54.90
2022-07-31T22:48:46.214Z,54.37
2022-07-31T22:51:15.576Z,54.60
2022-07-31T22:53:44.158Z,55.03
2022-07-31T22:56:13.424Z,54.83
2022-07-31T22:58:41.278Z,54.00
2022-07-31T23:01:09.099Z,54.80
2022-07-31T23:03:36.899Z,54.90
2022-07-31T23:06:31.358Z,54.90
2022-07-31T23:08:53.725Z,54.50
2022-07-31T23:11:25.147Z,54.50
2022-07-31T23:13:53.150Z,54.90
2022-07-31T23:16:21.233Z,54.57
2022-07-31T23:18:49.572Z,54.17
2022-07-31T23:21:17.504Z,54.53
2022-07-31T23:23:49.062Z,54.10
2022-07-31T23:26:18.316Z,54.43
2022-07-31T23:28:47.902Z,54.47
2022-07-31T23:31:16.315Z,54.63
2022-07-31T23:33:44.692Z,54.17
2022-07-31T23:36:13.015Z,54.30
2022-07-31T23:38:41.385Z,54.60
2022-07-31T23:41:09.785Z,54.43
2022-07-31T23:43:36.878Z,54.30
2022-07-31T23:46:06.612Z,54.57
2022-07-31T23:48:35.598Z,54.67
2022-07-31T23:51:04.123Z,54.10
2022-07-31T23:53:31.909Z,54.80
2022-07-31T23:55:59.811Z,54.57
2022-07-31T23:58:27.652Z,55.30
